Time;durP1;ratioP1;P1;durP2;ratioP2;P2;SDS_P1;SDS_P2;PMS_P1;PMS_P2;Temp;Humidity;BMP_temperature;BMP_pressure;BME280_temperature;BME280_humidity;BME280_pressure;Samples;Min_cycle;Max_cycle;Signal;HPM_P1;HPM_P2
2023/03/04 00:01:58;;;;;;;18.20;3.55;;;7.30;99.90;;;;;;5028279;28;20080;-58
2023/03/04 00:04:24;;;;;;;19.52;3.30;;;7.60;99.90;;;;;;5030010;28;20106;-58
2023/03/04 00:06:49;;;;;;;21.35;4.10;;;7.20;99.90;;;;;;5030226;28;20484;-58
2023/03/04 00:09:15;;;;;;;25.13;5.00;;;7.60;99.90;;;;;;5030342;28;20045;-59
2023/03/04 00:11:40;;;;;;;29.55;4.38;;;7.40;99.90;;;;;;5030337;28;20037;-58
2023/03/04 00:14:06;;;;;;;26.75;4.10;;;7.20;99.90;;;;;;5028825;28;20044;-58
2023/03/04 00:16:32;;;;;;;21.52;3.70;;;7.70;99.90;;;;;;5029901;28;20048;-58
2023/03/04 00:18:57;;;;;;;21.58;4.00;;;7.70;99.90;;;;;;5029982;28;20139;-58
2023/03/04 00:21:23;;;;;;;22.90;4.03;;;7.70;99.90;;;;;;5030236;28;20057;-58
2023/03/04 00:23:49;;;;;;;27.92;3.92;;;7.30;99.90;;;;;;5032582;28;20045;-58
2023/03/04 00:26:16;;;;;;;17.10;3.72;;;7.80;99.90;;;;;;5033259;28;20033;-58
2023/03/04 00:28:41;;;;;;;17.60;4.00;;;7.60;99.90;;;;;;5034131;28;20160;-58
2023/03/04 00:31:08;;;;;;;19.92;3.30;;;7.30;99.90;;;;;;5034226;28;20530;-58
2023/03/04 00:33:34;;;;;;;18.10;3.67;;;7.70;99.90;;;;;;5032734;28;20391;-58
2023/03/04 00:36:00;;;;;;;14.98;3.05;;;7.40;99.90;;;;;;5033346;28;20049;-58
2023/03/04 00:38:26;;;;;;;17.52;3.00;;;9.50;99.90;;;;;;5033399;28;20065;-58
2023/03/04 00:40:52;;;;;;;21.55;3.50;;;7.70;99.90;;;;;;5033418;28;20138;-58
2023/03/04 00:43:17;;;;;;;22.35;3.35;;;7.60;99.90;;;;;;5033420;28;20033;-58
2023/03/04 00:45:43;;;;;;;17.73;3.15;;;7.70;99.90;;;;;;5032535;28;20029;-58
2023/03/04 00:48:08;;;;;;;18.52;3.53;;;7.70;99.90;;;;;;5032457;28;20037;-58
2023/03/04 00:50:34;;;;;;;15.18;2.72;;;7.60;99.90;;;;;;5032837;28;20523;-58
2023/03/04 00:53:00;;;;;;;17.95;3.17;;;7.40;99.90;;;;;;5033732;28;20116;-58
2023/03/04 00:55:26;;;;;;;16.08;3.13;;;7.70;99.90;;;;;;5033279;28;20037;-58
2023/03/04 00:57:52;;;;;;;17.65;3.25;;;7.80;99.90;;;;;;5033163;28;20038;-58
2023/03/04 01:00:18;;;;;;;14.07;3.03;;;7.50;99.90;;;;;;5033718;28;20042;-58
2023/03/04 01:02:43;;;;;;;18.88;3.38;;;7.60;99.90;;;;;;5033555;28;20044;-58
2023/03/04 01:05:09;;;;;;;24.63;4.43;;;7.30;99.90;;;;;;5032927;28;20523;-58
2023/03/04 01:07:35;;;;;;;25.17;3.85;;;7.50;99.90;;;;;;5032621;28;20039;-58
2023/03/04 01:10:00;;;;;;;22.77;4.05;;;7.30;99.90;;;;;;5033590;28;20033;-58
2023/03/04 01:12:27;;;;;;;24.35;3.85;;;7.10;99.90;;;;;;5033418;28;20396;-58
2023/03/04 01:14:52;;;;;;;21.38;3.75;;;7.80;99.90;;;;;;5032854;28;20034;-58
2023/03/04 01:17:18;;;;;;;21.42;3.47;;;7.70;99.90;;;;;;5032598;28;20040;-58
2023/03/04 01:19:44;;;;;;;20.88;4.20;;;7.70;99.90;;;;;;5032811;28;20124;-58
2023/03/04 01:22:11;;;;;;;18.75;3.47;;;8.10;99.90;;;;;;5033414;28;20096;-58
2023/03/04 01:24:37;;;;;;;17.02;3.58;;;7.10;99.90;;;;;;5033113;28;20030;-58
2023/03/04 01:27:02;;;;;;;15.27;3.58;;;7.10;99.90;;;;;;5031720;28;20047;-58
2023/03/04 01:29:28;;;;;;;12.25;2.97;;;7.30;99.90;;;;;;5032970;28;20134;-58
2023/03/04 01:31:53;;;;;;;14.75;3.13;;;7.50;99.90;;;;;;5032685;28;20085;-58
2023/03/04 01:34:19;;;;;;;19.02;3.15;;;7.60;99.90;;;;;;5031950;28;20376;-58
2023/03/04 01:36:45;;;;;;;17.23;3.55;;;7.50;99.90;;;;;;5032081;28;20395;-58
2023/03/04 01:39:10;;;;;;;14.50;3.15;;;7.60;99.90;;;;;;5032863;28;20069;-58
2023/03/04 01:41:36;;;;;;;19.75;3.75;;;7.20;99.90;;;;;;5031538;28;20038;-59
2023/03/04 01:44:02;;;;;;;23.35;3.70;;;7.20;99.90;;;;;;5033006;28;20507;-58
2023/03/04 01:46:29;;;;;;;18.05;3.75;;;7.40;99.90;;;;;;5030319;28;20116;-58
2023/03/04 01:48:55;;;;;;;21.08;3.92;;;7.20;99.90;;;;;;5032445;28;20048;-58
2023/03/04 01:51:21;;;;;;;16.20;3.03;;;7.30;99.90;;;;;;5031468;28;20041;-58
2023/03/04 01:53:50;;;;;;;24.08;3.22;;;7.40;99.90;;;;;;5032768;28;20056;-58
2023/03/04 01:56:42;;;;;;;19.77;3.53;;;7.10;99.90;;;;;;5031868;28;20048;-58
2023/03/04 01:59:19;;;;;;;17.55;3.08;;;7.10;99.90;;;;;;5032297;28;20534;-58
2023/03/04 02:01:48;;;;;;;18.33;3.30;;;7.20;99.90;;;;;;5032348;28;20041;-58
2023/03/04 02:04:15;;;;;;;15.88;3.67;;;7.60;99.90;;;;;;5031677;28;20068;-58
2023/03/04 02:06:42;;;;;;;20.10;3.30;;;7.00;99.90;;;;;;5029576;28;20045;-58
2023/03/04 02:09:08;;;;;;;26.38;4.18;;;7.30;99.90;;;;;;5032283;28;20037;-58
2023/03/04 02:11:36;;;;;;;20.15;3.33;;;7.20;99.90;;;;;;5031311;28;20487;-58
2023/03/04 02:14:01;;;;;;;20.88;3.88;;;7.50;99.90;;;;;;5031006;28;20506;-58
2023/03/04 02:16:27;;;;;;;19.05;3.35;;;7.30;99.90;;;;;;5031804;28;20073;-58
2023/03/04 02:18:53;;;;;;;13.85;3.35;;;7.60;99.90;;;;;;5047093;28;20415;-59
2023/03/04 02:21:26;;;;;;;17.35;3.00;;;7.70;99.90;;;;;;5031927;28;20042;-58
2023/03/04 02:24:23;;;;;;;20.27;3.60;;;7.70;99.90;;;;;;5030941;28;20052;-58
2023/03/04 02:26:49;;;;;;;17.05;3.30;;;7.20;99.90;;;;;;5018344;28;20043;-58
2023/03/04 02:29:16;;;;;;;20.45;4.03;;;7.70;99.90;;;;;;5032269;28;20044;-58
2023/03/04 02:31:49;;;;;;;23.38;3.80;;;7.70;99.90;;;;;;5032156;28;20064;-58
2023/03/04 02:34:28;;;;;;;15.45;3.08;;;7.50;99.90;;;;;;5031615;28;20037;-58
2023/03/04 02:36:55;;;;;;;17.33;3.50;;;7.70;99.90;;;;;;5030085;28;20056;-58
2023/03/04 02:39:34;;;;;;;18.60;3.20;;;7.70;99.90;;;;;;5031641;28;20037;-58
2023/03/04 02:42:01;;;;;;;13.95;2.58;;;7.50;99.90;;;;;;5031969;28;20599;-58
2023/03/04 02:44:33;;;;;;;11.57;2.40;;;7.20;99.90;;;;;;5031497;28;20094;-58
2023/03/04 02:46:59;;;;;;;16.05;3.00;;;7.20;99.90;;;;;;5030372;28;20091;-58
2023/03/04 02:49:27;;;;;;;13.55;2.65;;;7.50;99.90;;;;;;5046734;28;20395;-58
2023/03/04 02:52:08;;;;;;;12.80;2.63;;;7.50;99.90;;;;;;5030836;28;20099;-58
2023/03/04 02:54:34;;;;;;;15.20;2.58;;;7.90;99.90;;;;;;5043195;28;20113;-58
2023/03/04 02:57:02;;;;;;;13.40;2.65;;;7.30;99.90;;;;;;5017708;28;20171;-57
2023/03/04 02:59:29;;;;;;;12.35;2.45;;;7.70;99.90;;;;;;5030388;28;20076;-58
2023/03/04 03:01:55;;;;;;;13.43;2.70;;;7.80;99.90;;;;;;5029841;28;20042;-58
2023/03/04 03:04:22;;;;;;;15.18;2.67;;;7.80;99.90;;;;;;5030133;28;20075;-58
2023/03/04 03:06:47;;;;;;;14.85;2.83;;;7.30;99.90;;;;;;5031614;28;20044;-58
2023/03/04 03:09:13;;;;;;;14.00;2.95;;;7.50;99.90;;;;;;5030710;28;20033;-58
2023/03/04 03:11:39;;;;;;;21.92;3.33;;;7.70;99.90;;;;;;5031076;28;20514;-58
2023/03/04 03:14:05;;;;;;;17.17;2.65;;;7.30;99.90;;;;;;5046323;28;20038;-58
2023/03/04 03:16:31;;;;;;;13.23;2.92;;;7.90;99.90;;;;;;5031151;28;20045;-59
2023/03/04 03:18:57;;;;;;;12.32;2.63;;;7.90;99.90;;;;;;5031113;28;20099;-58
2023/03/04 03:21:23;;;;;;;18.38;3.67;;;7.90;99.90;;;;;;5029713;28;20033;-58
2023/03/04 03:23:49;;;;;;;15.18;2.60;;;7.70;99.90;;;;;;5029803;28;20076;-58
2023/03/04 03:26:15;;;;;;;13.20;2.72;;;7.30;99.90;;;;;;5031199;28;20037;-58
2023/03/04 03:28:41;;;;;;;7.95;2.00;;;7.40;99.90;;;;;;5031021;28;20037;-59
2023/03/04 03:31:06;;;;;;;12.15;2.47;;;7.70;99.90;;;;;;5028115;28;20033;-58
2023/03/04 03:33:32;;;;;;;15.60;2.83;;;7.50;99.90;;;;;;5030320;28;20481;-58
2023/03/04 03:35:59;;;;;;;14.30;2.50;;;7.80;99.90;;;;;;5030860;28;20037;-58
2023/03/04 03:38:24;;;;;;;10.95;2.15;;;7.50;99.90;;;;;;5030727;28;20033;-58
2023/03/04 03:40:50;;;;;;;9.90;2.08;;;7.70;99.90;;;;;;5029496;28;20052;-58
2023/03/04 03:43:16;;;;;;;10.25;2.47;;;7.30;99.90;;;;;;5029493;28;20041;-58
2023/03/04 03:45:41;;;;;;;9.52;2.22;;;7.80;99.90;;;;;;5030425;28;20038;-58
2023/03/04 03:48:07;;;;;;;11.85;2.17;;;7.40;99.90;;;;;;5030552;28;20029;-58
2023/03/04 03:50:32;;;;;;;12.88;1.80;;;7.20;99.90;;;;;;5029722;28;20034;-58
2023/03/04 03:52:58;;;;;;;6.05;1.67;;;7.20;99.90;;;;;;5030752;28;20183;-57
2023/03/04 03:55:24;;;;;;;10.40;2.00;;;7.80;99.90;;;;;;5030796;28;20120;-58
2023/03/04 03:57:50;;;;;;;10.77;2.03;;;7.50;99.90;;;;;;5030103;28;20045;-58
2023/03/04 04:00:16;;;;;;;15.75;2.85;;;7.70;99.90;;;;;;5029392;28;20037;-58
2023/03/04 04:02:41;;;;;;;10.70;2.10;;;7.60;1.00;;;;;;5029984;28;20124;-58
2023/03/04 04:05:08;;;;;;;14.88;2.05;;;7.80;1.00;;;;;;5030787;28;20499;-58
2023/03/04 04:07:35;;;;;;;13.77;2.17;;;7.90;1.00;;;;;;5030596;28;20124;-58
2023/03/04 04:10:01;;;;;;;11.63;2.38;;;7.70;1.00;;;;;;5029212;28;20037;-58
2023/03/04 04:12:27;;;;;;;13.35;2.38;;;7.10;1.00;;;;;;5030218;28;20040;-58
2023/03/04 04:14:52;;;;;;;10.88;2.28;;;7.80;1.00;;;;;;5030642;28;20069;-58
2023/03/04 04:17:18;;;;;;;10.82;2.35;;;7.90;1.00;;;;;;5028094;28;20037;-58
2023/03/04 04:19:43;;;;;;;8.20;1.85;;;7.90;1.00;;;;;;5028516;28;20060;-58
2023/03/04 04:22:17;;;;;;;10.75;1.58;;;7.80;1.00;;;;;;5029209;28;20049;-58
2023/03/04 04:24:43;;;;;;;13.73;1.98;;;7.00;1.00;;;;;;5030450;28;20483;-58
2023/03/04 04:27:10;;;;;;;8.23;1.70;;;7.80;1.00;;;;;;5029742;28;20044;-58
2023/03/04 04:29:36;;;;;;;9.18;2.15;;;7.30;1.00;;;;;;5030361;28;20402;-58
2023/03/04 04:32:02;;;;;;;12.63;1.90;;;7.90;13.30;;;;;;5028921;28;20045;-58
2023/03/04 04:34:28;;;;;;;11.38;2.25;;;7.30;33.60;;;;;;5030401;28;20459;-58
2023/03/04 04:36:54;;;;;;;11.73;2.20;;;7.40;48.20;;;;;;5027171;28;20099;-61
2023/03/04 04:39:19;;;;;;;9.02;1.95;;;7.00;56.90;;;;;;5030185;28;20083;-58
2023/03/04 04:41:46;;;;;;;13.80;2.22;;;7.00;57.00;;;;;;5029983;28;20084;-58
2023/03/04 04:44:12;;;;;;;14.15;2.10;;;7.60;56.70;;;;;;5029637;28;20414;-58
2023/03/04 04:46:37;;;;;;;10.43;1.58;;;7.00;57.80;;;;;;5012532;28;20033;-58
2023/03/04 04:49:04;;;;;;;10.50;1.88;;;7.10;31.40;;;;;;5027668;28;20052;-58
2023/03/04 04:51:30;;;;;;;11.85;2.30;;;7.10;28.20;;;;;;5029468;28;20045;-58
2023/03/04 04:53:57;;;;;;;8.35;1.65;;;7.90;40.00;;;;;;5030162;28;20045;-57
2023/03/04 04:56:25;;;;;;;7.95;2.05;;;8.00;66.60;;;;;;5030276;28;20082;-58
2023/03/04 04:58:52;;;;;;;11.90;2.08;;;7.00;99.90;;;;;;5029393;28;20080;-58
2023/03/04 05:01:18;;;;;;;8.27;2.13;;;7.60;99.90;;;;;;5029735;28;20042;-57
2023/03/04 05:03:43;;;;;;;13.38;2.15;;;7.10;99.90;;;;;;5030272;28;20048;-58
2023/03/04 05:06:10;;;;;;;16.63;2.53;;;8.00;99.90;;;;;;5030580;28;20403;-58
2023/03/04 05:08:36;;;;;;;8.38;1.70;;;7.00;99.90;;;;;;5028037;28;20044;-58
2023/03/04 05:11:03;;;;;;;9.43;1.85;;;8.00;1.00;;;;;;5025796;28;20041;-58
2023/03/04 05:13:29;;;;;;;17.70;2.25;;;7.90;1.00;;;;;;5048818;28;20415;-58
2023/03/04 05:15:55;;;;;;;11.43;2.72;;;6.90;40.20;;;;;;5033464;28;20042;-58
2023/03/04 05:18:22;;;;;;;16.85;2.40;;;8.10;99.90;;;;;;5030970;28;20506;-58
2023/03/04 05:20:52;;;;;;;12.80;2.03;;;8.10;99.90;;;;;;5032186;28;20042;-57
2023/03/04 05:23:18;;;;;;;23.27;2.30;;;8.00;99.90;;;;;;5033323;28;20088;-58
2023/03/04 05:25:44;;;;;;;16.65;2.35;;;6.50;1.00;;;;;;5033133;28;20049;-58
2023/03/04 05:28:11;;;;;;;15.55;2.33;;;7.50;1.00;;;;;;5032538;28;20033;-58
2023/03/04 05:30:40;;;;;;;10.65;1.98;;;7.20;39.40;;;;;;5031838;28;20052;-58
2023/03/04 05:33:07;;;;;;;11.90;2.15;;;7.80;92.00;;;;;;5033124;28;20759;-58
2023/03/04 05:35:34;;;;;;;12.52;2.38;;;6.60;99.90;;;;;;5032926;28;20128;-58
2023/03/04 05:38:00;;;;;;;11.57;2.60;;;6.70;99.90;;;;;;5030879;28;20087;-58
2023/03/04 05:40:26;;;;;;;14.18;2.38;;;6.60;99.90;;;;;;5031747;28;20041;-58
2023/03/04 05:42:52;;;;;;;17.75;2.35;;;8.30;1.00;;;;;;5032339;28;20056;-58
2023/03/04 05:45:17;;;;;;;10.20;2.22;;;7.60;99.90;;;;;;5032820;28;20491;-58
2023/03/04 05:47:43;;;;;;;10.20;2.05;;;8.30;99.90;;;;;;5032144;28;20041;-58
2023/03/04 05:50:09;;;;;;;15.88;2.45;;;6.30;1.00;;;;;;5032585;28;20488;-58
2023/03/04 05:52:35;;;;;;;13.48;2.33;;;6.30;99.90;;;;;;5032424;28;20345;-58
2023/03/04 05:55:00;;;;;;;23.67;3.03;;;7.50;99.90;;;;;;5032810;28;20041;-58
2023/03/04 05:57:26;;;;;;;18.67;2.85;;;6.30;7.30;;;;;;5030595;28;20116;-58
2023/03/04 05:59:51;;;;;;;15.75;2.22;;;7.30;99.90;;;;;;5032466;28;20087;-58
2023/03/04 06:02:17;;;;;;;13.13;2.55;;;7.60;1.00;;;;;;5032548;28;20091;-58
2023/03/04 06:04:43;;;;;;;18.75;2.67;;;7.30;99.90;;;;;;5031798;28;20043;-58
2023/03/04 06:07:08;;;;;;;15.70;2.58;;;7.80;1.00;;;;;;5030720;28;20041;-58
2023/03/04 06:09:34;;;;;;;6.18;1.60;;;7.70;1.00;;;;;;5031076;28;20034;-58
2023/03/04 06:11:59;;;;;;;8.98;2.00;;;6.50;99.90;;;;;;5032234;28;20048;-58
2023/03/04 06:14:25;;;;;;;6.90;1.90;;;8.20;99.90;;;;;;5031166;28;20049;-58
2023/03/04 06:16:50;;;;;;;10.65;1.60;;;6.90;39.00;;;;;;5030748;28;20507;-58
2023/03/04 06:19:16;;;;;;;10.45;1.95;;;7.20;1.00;;;;;;5027219;28;20058;-58
2023/03/04 06:21:41;;;;;;;12.48;2.28;;;7.30;99.90;;;;;;5011967;28;20128;-58
2023/03/04 06:24:07;;;;;;;11.70;2.40;;;8.00;99.90;;;;;;5011050;28;20042;-58
2023/03/04 06:26:33;;;;;;;13.90;2.55;;;7.30;99.90;;;;;;5024448;28;20107;-58
2023/03/04 06:28:58;;;;;;;13.25;2.03;;;8.10;99.90;;;;;;5031484;28;20038;-58
2023/03/04 06:31:24;;;;;;;17.05;2.25;;;6.50;99.90;;;;;;5030272;28;20053;-58
2023/03/04 06:33:49;;;;;;;15.73;2.92;;;8.00;86.40;;;;;;5032034;28;20033;-58
2023/03/04 06:36:15;;;;;;;15.57;2.55;;;6.70;69.50;;;;;;5031752;28;20048;-58
2023/03/04 06:38:40;;;;;;;19.67;3.10;;;8.50;34.00;;;;;;5030678;28;20042;-58
2023/03/04 06:41:11;;;;;;;15.13;3.55;;;6.80;1.00;;;;;;5030988;28;20041;-58
2023/03/04 06:43:37;;;;;;;13.00;2.50;;;6.80;1.00;;;;;;5031863;28;20119;-58
2023/03/04 06:46:03;;;;;;;12.80;2.38;;;7.20;99.90;;;;;;5028848;28;20063;-58
2023/03/04 06:48:29;;;;;;;9.85;2.05;;;7.10;99.90;;;;;;5030270;28;20084;-58
2023/03/04 06:50:55;;;;;;;9.57;1.85;;;7.10;98.10;;;;;;5030854;28;20069;-58
2023/03/04 06:53:20;;;;;;;13.50;2.45;;;7.10;1.00;;;;;;5031608;28;20052;-58
2023/03/04 06:55:47;;;;;;;13.75;2.20;;;7.20;99.90;;;;;;5031446;28;20077;-58
2023/03/04 06:58:12;;;;;;;11.77;2.50;;;8.10;99.90;;;;;;5031544;28;20402;-58
2023/03/04 07:00:38;;;;;;;8.93;2.10;;;8.40;24.90;;;;;;5030908;28;20042;-58
2023/03/04 07:03:03;;;;;;;12.57;2.40;;;7.20;1.00;;;;;;5031362;28;20069;-59
2023/03/04 07:05:29;;;;;;;12.15;2.10;;;7.50;99.90;;;;;;5030854;28;20037;-58
2023/03/04 07:07:55;;;;;;;11.68;2.22;;;8.50;99.90;;;;;;5031385;28;20037;-58
2023/03/04 07:10:21;;;;;;;7.57;1.95;;;7.30;99.90;;;;;;5031310;28;20883;-58
2023/03/04 07:12:47;;;;;;;6.78;1.85;;;8.70;99.90;;;;;;5031009;28;20384;-58
2023/03/04 07:15:12;;;;;;;10.85;1.77;;;8.50;99.90;;;;;;5030319;28;20048;-58
2023/03/04 07:17:38;;;;;;;12.93;2.00;;;8.10;99.90;;;;;;5031233;28;20099;-58
2023/03/04 07:20:04;;;;;;;11.68;1.98;;;8.70;99.90;;;;;;5026008;28;20057;-58
2023/03/04 07:22:30;;;;;;;15.82;2.63;;;8.00;99.90;;;;;;5034861;28;20050;-58
2023/03/04 07:24:56;;;;;;;10.90;2.30;;;8.80;1.00;;;;;;5039052;28;20399;-58
2023/03/04 07:27:21;;;;;;;11.43;1.95;;;8.80;69.00;;;;;;5023910;28;20108;-59
2023/03/04 07:29:47;;;;;;;12.25;2.75;;;8.00;99.90;;;;;;5029620;28;20090;-58
2023/03/04 07:32:12;;;;;;;13.88;2.45;;;8.80;99.90;;;;;;5029562;28;20041;-58
2023/03/04 07:34:38;;;;;;;13.18;2.25;;;8.70;1.00;;;;;;5030788;28;20514;-58
2023/03/04 07:37:03;;;;;;;16.25;2.65;;;8.80;99.90;;;;;;5030854;28;20041;-58
2023/03/04 07:39:29;;;;;;;15.93;3.03;;;7.90;99.90;;;;;;5028589;28;20044;-58
2023/03/04 07:41:55;;;;;;;17.38;3.00;;;8.40;1.00;;;;;;5027392;28;20045;-58
2023/03/04 07:44:20;;;;;;;15.35;2.72;;;8.80;99.90;;;;;;5031148;28;20445;-58
2023/03/04 07:46:46;;;;;;;15.27;3.00;;;8.70;42.50;;;;;;5030123;28;20049;-58
2023/03/04 07:49:12;;;;;;;13.57;2.55;;;8.20;99.90;;;;;;5029551;28;20037;-58
2023/03/04 07:51:38;;;;;;;14.13;2.80;;;6.80;99.90;;;;;;5030445;28;20060;-58
2023/03/04 07:54:04;;;;;;;19.02;2.92;;;7.80;1.00;;;;;;5029224;28;20037;-58
2023/03/04 07:56:32;;;;;;;19.23;3.00;;;7.70;99.90;;;;;;5027917;28;20114;-58
2023/03/04 07:58:58;;;;;;;25.42;3.65;;;9.10;99.90;;;;;;5028691;28;20509;-58
2023/03/04 08:01:35;;;;;;;20.10;3.05;;;7.50;1.00;;;;;;5030646;28;20033;-58
2023/03/04 08:04:02;;;;;;;16.20;2.90;;;7.50;99.90;;;;;;5030116;28;20049;-58
2023/03/04 08:06:29;;;;;;;21.05;3.63;;;9.10;1.00;;;;;;5030781;28;20069;-58
2023/03/04 08:08:58;;;;;;;20.20;2.90;;;8.70;99.90;;;;;;5019632;28;20045;-58
2023/03/04 08:11:24;;;;;;;16.67;3.05;;;7.70;99.90;;;;;;5003742;28;20718;-58
2023/03/04 08:13:52;;;;;;;18.00;3.00;;;9.10;99.90;;;;;;5007125;28;20078;-58
2023/03/04 08:16:19;;;;;;;16.95;3.47;;;7.60;99.90;;;;;;5011124;28;20049;-58
2023/03/04 08:18:48;;;;;;;22.63;3.50;;;7.00;99.90;;;;;;5007750;28;20037;-59
2023/03/04 08:21:18;;;;;;;17.30;3.42;;;7.00;99.90;;;;;;5008567;28;20137;-58
2023/03/04 08:23:44;;;;;;;18.77;3.15;;;7.20;99.90;;;;;;5008118;28;20049;-58
2023/03/04 08:26:13;;;;;;;18.10;3.13;;;7.90;99.90;;;;;;5010582;28;20073;-58
2023/03/04 08:28:39;;;;;;;17.58;3.08;;;7.50;99.90;;;;;;5008832;28;20418;-58
2023/03/04 08:31:05;;;;;;;16.08;2.97;;;9.10;99.90;;;;;;5007350;28;20129;-58
2023/03/04 08:33:32;;;;;;;20.92;3.95;;;7.60;99.90;;;;;;5009339;28;20112;-58
2023/03/04 08:35:58;;;;;;;19.00;3.20;;;9.00;99.90;;;;;;5009972;28;20527;-58
2023/03/04 08:38:24;;;;;;;20.55;3.92;;;8.10;99.90;;;;;;5007679;28;20065;-58
2023/03/04 08:40:54;;;;;;;13.70;2.85;;;8.60;99.90;;;;;;5007277;28;20042;-58
2023/03/04 08:43:21;;;;;;;21.65;3.78;;;9.10;99.90;;;;;;5007666;28;20042;-58
2023/03/04 08:45:47;;;;;;;23.77;3.70;;;8.60;99.90;;;;;;5011663;28;20564;-58
2023/03/04 08:48:13;;;;;;;25.45;4.03;;;8.60;99.90;;;;;;5013666;28;20038;-59
2023/03/04 08:50:38;;;;;;;19.30;3.92;;;7.30;99.90;;;;;;5011619;28;20042;-61
2023/03/04 08:53:04;;;;;;;20.30;3.40;;;7.30;99.90;;;;;;5011690;28;20046;-59
2023/03/04 08:55:30;;;;;;;24.70;4.72;;;7.40;99.90;;;;;;5011691;28;20403;-58
2023/03/04 08:57:55;;;;;;;20.05;3.95;;;9.50;99.90;;;;;;5013169;28;20044;-58
2023/03/04 09:00:22;;;;;;;24.85;4.20;;;9.20;99.90;;;;;;5012742;28;20049;-58
2023/03/04 09:02:48;;;;;;;22.88;4.15;;;7.70;29.00;;;;;;5011887;28;20038;-59
2023/03/04 09:05:14;;;;;;;24.52;4.07;;;9.30;99.90;;;;;;5012087;28;20491;-58
2023/03/04 09:07:39;;;;;;;22.85;4.55;;;8.30;99.90;;;;;;5013569;28;20072;-58
2023/03/04 09:10:05;;;;;;;21.35;4.05;;;8.80;99.90;;;;;;5027351;28;20041;-58
2023/03/04 09:12:31;;;;;;;25.10;5.05;;;8.10;25.10;;;;;;5028371;28;20391;-58
2023/03/04 09:14:57;;;;;;;27.17;5.38;;;7.90;99.90;;;;;;5011850;28;20045;-58
2023/03/04 09:17:22;;;;;;;25.38;4.35;;;7.60;1.00;;;;;;5012305;28;20056;-58
2023/03/04 09:19:48;;;;;;;24.65;4.07;;;8.60;90.40;;;;;;5012734;28;20790;-58
2023/03/04 09:22:14;;;;;;;23.58;4.03;;;8.90;99.90;;;;;;5012555;28;20060;-58
2023/03/04 09:24:39;;;;;;;21.92;3.58;;;9.00;96.80;;;;;;5011669;28;20093;-59
2023/03/04 09:27:05;;;;;;;29.15;5.22;;;8.10;1.00;;;;;;5013192;28;20045;-58
2023/03/04 09:29:30;;;;;;;33.42;5.57;;;7.90;99.90;;;;;;5013174;28;20049;-58
2023/03/04 09:31:56;;;;;;;31.30;6.13;;;8.70;1.00;;;;;;5013058;28;20127;-58
2023/03/04 09:34:21;;;;;;;23.08;3.97;;;7.80;99.90;;;;;;5008540;28;20038;-58
2023/03/04 09:36:47;;;;;;;27.65;4.50;;;7.90;99.90;;;;;;5011375;28;20180;-58
2023/03/04 09:39:13;;;;;;;29.15;5.35;;;8.10;46.60;;;;;;5010781;28;20037;-58
2023/03/04 09:41:49;;;;;;;27.25;5.85;;;7.90;1.00;;;;;;5012896;28;20038;-58
2023/03/04 09:44:35;;;;;;;;;;;8.70;1.00;;;;;;5007651;28;20113;-58
2023/03/04 09:47:28;;;;;;;22.13;4.55;;;8.10;99.90;;;;;;5011879;28;19921;-58
2023/03/04 09:50:00;;;;;;;23.60;4.25;;;8.60;99.90;;;;;;5003834;28;20192;-59
2023/03/04 09:52:33;;;;;;;23.00;4.43;;;8.40;99.90;;;;;;5024467;28;20133;-58
2023/03/04 09:55:24;;;;;;;28.40;5.18;;;8.70;95.00;;;;;;5009336;28;20606;-59
2023/03/04 09:57:59;;;;;;;27.85;4.72;;;8.10;21.50;;;;;;4993493;28;20117;-59
2023/03/04 10:00:39;;;;;;;27.52;5.32;;;8.40;1.00;;;;;;5003719;28;20057;-58
2023/03/04 10:03:20;;;;;;;22.38;4.63;;;8.00;1.00;;;;;;5010641;28;20042;-58
2023/03/04 10:06:08;;;;;;;18.38;3.83;;;8.40;1.00;;;;;;5011877;28;20030;-58
2023/03/04 10:08:49;;;;;;;22.20;3.65;;;8.60;1.00;;;;;;5011820;28;20121;-58
2023/03/04 10:11:17;;;;;;;16.45;3.95;;;8.20;1.00;;;;;;5008932;28;20073;-58
2023/03/04 10:13:52;;;;;;;18.67;4.00;;;8.10;99.90;;;;;;5012118;28;20049;-58
2023/03/04 10:16:23;;;;;;;19.63;4.05;;;8.10;99.90;;;;;;5009669;28;20514;-58
2023/03/04 10:19:12;;;;;;;19.33;3.90;;;8.40;99.90;;;;;;5022647;28;20751;-58
2023/03/04 10:21:43;;;;;;;19.55;3.78;;;8.70;99.90;;;;;;4999062;28;20057;-58
2023/03/04 10:24:13;;;;;;;28.88;4.43;;;8.20;99.90;;;;;;5012566;28;20049;-58
2023/03/04 10:26:41;;;;;;;15.15;3.58;;;8.30;99.90;;;;;;5027810;28;20046;-58
2023/03/04 10:29:13;;;;;;;17.13;3.75;;;8.20;99.90;;;;;;5027405;28;20116;-58
2023/03/04 10:31:40;;;;;;;17.83;3.42;;;8.80;99.90;;;;;;5011395;28;20045;-58
2023/03/04 10:34:09;;;;;;;9.85;2.67;;;8.40;99.90;;;;;;5012221;28;20042;-58
2023/03/04 10:36:58;;;;;;;13.75;3.08;;;8.30;99.90;;;;;;5011933;28;20073;-58
2023/03/04 10:39:27;;;;;;;15.57;2.85;;;8.60;99.90;;;;;;5007233;28;20050;-58
2023/03/04 10:42:01;;;;;;;12.02;2.25;;;7.90;99.90;;;;;;5010936;28;20523;-58
2023/03/04 10:44:31;;;;;;;15.93;2.70;;;8.00;99.90;;;;;;5011781;28;20034;-59
2023/03/04 10:46:57;;;;;;;16.40;2.95;;;9.70;99.90;;;;;;5012221;28;20117;-58
2023/03/04 10:49:24;;;;;;;12.02;2.60;;;7.70;1.00;;;;;;5011412;28;20042;-58
2023/03/04 10:52:17;;;;;;;13.32;2.72;;;7.90;1.00;;;;;;4992991;28;20077;-58
2023/03/04 10:54:54;;;;;;;10.02;2.25;;;8.60;1.00;;;;;;5011661;28;20052;-58
2023/03/04 10:57:27;;;;;;;12.05;2.20;;;8.70;1.00;;;;;;5011993;28;20088;-58
2023/03/04 11:00:02;;;;;;;14.25;2.83;;;8.50;1.00;;;;;;5011357;28;20041;-58
2023/03/04 11:02:33;;;;;;;17.63;2.90;;;8.10;1.00;;;;;;5010068;28;20034;-58
2023/03/04 11:05:15;;;;;;;7.47;1.73;;;7.80;1.00;;;;;;5011699;28;20045;-58
2023/03/04 11:07:43;;;;;;;14.70;2.72;;;7.60;1.00;;;;;;5010315;28;20045;-58
2023/03/04 11:10:10;;;;;;;12.48;2.35;;;8.60;1.00;;;;;;5009735;28;20415;-58
2023/03/04 11:12:36;;;;;;;14.27;2.20;;;7.50;39.70;;;;;;5007500;28;20030;-58
2023/03/04 11:15:03;;;;;;;13.35;2.40;;;8.60;41.30;;;;;;5011596;28;20044;-58
2023/03/04 11:17:50;;;;;;;9.02;1.88;;;8.10;17.00;;;;;;5011197;28;20038;-58
2023/03/04 11:20:32;;;;;;;6.15;1.58;;;7.90;1.00;;;;;;5009917;28;20491;-58
2023/03/04 11:23:11;;;;;;;8.63;1.88;;;8.80;1.00;;;;;;5010833;28;20073;-58
2023/03/04 11:25:46;;;;;;;9.55;2.15;;;8.50;1.00;;;;;;5011362;28;20041;-58
2023/03/04 11:28:21;;;;;;;9.52;1.95;;;8.40;1.00;;;;;;5004099;28;20100;-59
2023/03/04 11:30:59;;;;;;;14.38;2.53;;;9.20;1.00;;;;;;5010481;28;20536;-58
2023/03/04 11:33:40;;;;;;;13.25;2.90;;;9.40;99.90;;;;;;5011132;28;20389;-58
2023/03/04 11:36:06;;;;;;;16.77;3.22;;;8.70;99.90;;;;;;5011175;28;20046;-58
2023/03/04 11:38:36;;;;;;;12.95;2.83;;;9.00;99.90;;;;;;5009540;28;20042;-58
2023/03/04 11:41:23;;;;;;;21.05;3.58;;;9.50;99.90;;;;;;5024725;28;20038;-58
2023/03/04 11:43:49;;;;;;;15.75;3.30;;;9.10;99.90;;;;;;5010912;28;20054;-58
2023/03/04 11:46:24;;;;;;;20.83;4.20;;;8.80;99.90;;;;;;5011135;28;20491;-58
2023/03/04 11:49:16;;;;;;;22.15;4.72;;;8.30;99.90;;;;;;5010005;28;20120;-58
2023/03/04 11:52:01;;;;;;;24.23;4.82;;;8.30;99.90;;;;;;5008217;28;20046;-58
2023/03/04 11:55:04;;;;;;;24.67;4.65;;;8.80;99.90;;;;;;5006382;28;20100;-59
2023/03/04 11:57:39;;;;;;;15.27;3.35;;;8.70;99.90;;;;;;5025972;28;20045;-58
2023/03/04 12:00:11;;;;;;;12.23;3.53;;;8.70;99.90;;;;;;5010370;28;20100;-58
2023/03/04 12:02:46;;;;;;;18.48;3.85;;;8.80;99.90;;;;;;5004929;28;20042;-59
2023/03/04 12:05:25;;;;;;;21.77;4.60;;;8.50;99.90;;;;;;5010501;28;20500;-58
2023/03/04 12:08:07;;;;;;;15.77;3.88;;;8.50;99.90;;;;;;5009334;28;20238;-58
2023/03/04 12:10:42;;;;;;;26.83;4.95;;;8.80;99.90;;;;;;5009571;28;20073;-58
2023/03/04 12:13:34;;;;;;;18.10;3.90;;;8.90;99.90;;;;;;5010020;28;20046;-58
2023/03/04 12:16:05;;;;;;;21.40;4.50;;;8.60;99.90;;;;;;5004981;28;20058;-58
2023/03/04 12:19:05;;;;;;;25.90;4.78;;;8.60;99.90;;;;;;5010740;28;20057;-59
2023/03/04 12:22:11;;;;;;;20.60;4.45;;;8.70;99.90;;;;;;5002539;28;20050;-58
2023/03/04 12:25:07;;;;;;;21.42;3.75;;;8.60;99.90;;;;;;4989858;28;20492;-59
2023/03/04 12:27:50;;;;;;;19.88;4.35;;;8.90;99.90;;;;;;5012373;28;20113;-58
2023/03/04 12:30:30;;;;;;;22.73;3.80;;;8.80;99.90;;;;;;5010335;28;20049;-58
2023/03/04 12:33:35;;;;;;;20.50;4.25;;;9.10;99.90;;;;;;5011718;28;20042;-58
2023/03/04 12:36:46;;;;;;;17.50;4.03;;;8.90;97.10;;;;;;5024834;28;20089;-58
2023/03/04 12:39:31;;;;;;;17.42;3.92;;;9.00;82.90;;;;;;5007655;28;20161;-58
2023/03/04 12:42:25;;;;;;;18.98;4.93;;;9.20;55.50;;;;;;5012995;28;20045;-58
2023/03/04 12:45:33;;;;;;;19.50;4.00;;;8.90;46.70;;;;;;5009617;28;20526;-58
2023/03/04 12:48:16;;;;;;;20.92;4.40;;;8.80;49.80;;;;;;5012679;28;20034;-58
2023/03/04 12:51:19;;;;;;;22.08;4.28;;;8.90;53.40;;;;;;5009232;28;20064;-58
2023/03/04 12:54:08;;;;;;;26.63;5.10;;;8.80;71.20;;;;;;5009249;28;20518;-58
2023/03/04 12:57:01;;;;;;;28.38;5.85;;;8.70;90.10;;;;;;5011545;28;20055;-58
2023/03/04 12:59:33;;;;;;;31.10;5.72;;;8.70;99.90;;;;;;5007016;28;20396;-58
2023/03/04 13:02:36;;;;;;;28.23;5.22;;;8.50;99.90;;;;;;5012551;28;20286;-58
2023/03/04 13:05:24;;;;;;;26.02;5.95;;;8.60;99.90;;;;;;5006554;28;20042;-58